Accueil
METAR-TAF:

METAR-TAF

Aéroports :

Bend, Oregon, États-Unis

latitude: 44-05-40N, longitude: 121-12-00W, altitude: 1055 m

Observation

Le bulletin a été fait il y a 8 minutes, à 20:15 UTC
Vent 3 kt de direction variable
Température 18°C
Humidité 30%
Pression 1016 hPa
Visibilité: 16.1 km
Ciel clair

METAR: KBDN 222015Z AUTO VRB03KT 10SM CLR 18/M00 A2999 RMK AO2

Heure: 13:23 (20:23 UTC)

Prévision

Le bulletin a été fait il y a 3 heures et 2 minutes, à 17:21 UTC
Prévision valable du 22 à 18 UTC au 23 à 18 UTC
Vent 4 kt de sud/sud-ouest
Visibilité: 10 km
Ciel clair
A partir de 22 à 2100 UTC
Vent 7 kt de nord/nord-ouest
Visibilité: 10 km
Ciel clair
A partir de 23 à 0500 UTC
Vent 4 kt de sud/sud-ouest
Visibilité: 10 km
Ciel clair

TAF: KBDN 221721Z 2218/2318 20004KT P6SM SKC FM222100 34007KT P6SM SKC FM230500 21004KT P6SM SKC

Observations et prévisions météorologiques de plus de 4000 aéroports (messages METAR et TAF).

Les stations disponibles sont représentées par des disques jaunes et rouges sur la carte.

Passer la souris dessus pour voir le nom de la station.

Cliquer dessus pour voir les observations et prévisions météorologiques.

Pour changer de carte: cliquez sur les boutons verts avec une croix noire pour zoomer, sur le bouton vert avec un tiret pour effectuer un zoom arrière, ou sur les flèches vertes pour les cartes adjacentes.


METAR-TAF: